createdAt,value
2023-03-26T00:16:37.814Z,8.76
2023-03-26T00:36:43.555Z,8.83
2023-03-26T00:56:46.828Z,8.85
2023-03-26T01:16:51.246Z,8.54
2023-03-26T01:36:53.905Z,8.47
2023-03-26T01:56:58.581Z,7.97
2023-03-26T02:17:01.479Z,7.42
2023-03-26T02:37:04.292Z,7.10
2023-03-26T02:57:07.030Z,7.97
2023-03-26T03:17:10.810Z,8.13
2023-03-26T03:37:13.472Z,8.11
2023-03-26T03:57:17.561Z,7.93
2023-03-26T04:17:23.295Z,7.34
2023-03-26T04:37:26.783Z,7.88
2023-03-26T04:57:29.417Z,7.82
2023-03-26T05:17:32.394Z,8.29
2023-03-26T05:37:35.446Z,8.43
2023-03-26T05:57:38.994Z,8.52
2023-03-26T06:17:41.900Z,8.89
2023-03-26T06:37:45.204Z,9.43
2023-03-26T06:57:48.123Z,9.85
2023-03-26T07:17:51.083Z,10.27
2023-03-26T07:37:53.956Z,10.23
2023-03-26T07:57:56.825Z,10.82
2023-03-26T08:17:59.654Z,10.87
2023-03-26T08:38:02.308Z,12.42
2023-03-26T08:58:04.947Z,12.66
2023-03-26T09:18:08.037Z,12.87
2023-03-26T09:38:12.536Z,13.49
2023-03-26T09:58:15.191Z,13.39
2023-03-26T10:18:29.497Z,11.75
2023-03-26T10:38:32.970Z,12.41
2023-03-26T10:58:49.507Z,14.03
2023-03-26T11:18:53.142Z,13.41
2023-03-26T11:38:55.998Z,13.52
2023-03-26T11:58:59.391Z,13.52
2023-03-26T12:19:02.132Z,15.41
2023-03-26T12:39:16.402Z,14.86
2023-03-26T12:59:27.878Z,13.77
2023-03-26T13:19:30.584Z,14.44
2023-03-26T13:39:33.790Z,14.46
2023-03-26T13:59:36.451Z,14.93
2023-03-26T14:19:39.402Z,14.79
2023-03-26T14:39:42.223Z,14.34
2023-03-26T14:59:44.873Z,14.07
2023-03-26T15:19:48.032Z,14.12
2023-03-26T15:39:59.529Z,13.99
2023-03-26T16:00:03.217Z,13.13
2023-03-26T16:20:08.391Z,11.96
2023-03-26T16:40:12.873Z,12.27
2023-03-26T17:00:17.737Z,11.46
2023-03-26T17:20:20.573Z,10.89
2023-03-26T17:40:23.341Z,10.46
2023-03-26T18:00:26.105Z,9.86
2023-03-26T18:20:29.610Z,9.88
2023-03-26T18:40:32.390Z,9.20
2023-03-26T19:00:35.580Z,9.23
2023-03-26T19:20:38.403Z,9.97
2023-03-26T19:40:41.806Z,10.16
2023-03-26T20:00:44.467Z,10.43
2023-03-26T20:20:47.446Z,10.51
2023-03-26T20:40:50.563Z,10.25
2023-03-26T21:00:53.726Z,9.98
2023-03-26T21:20:57.687Z,9.75
2023-03-26T21:41:02.501Z,9.50
2023-03-26T22:01:05.398Z,9.46
2023-03-26T22:21:08.437Z,9.26
2023-03-26T22:41:12.111Z,9.17
2023-03-26T23:01:15.105Z,9.26
2023-03-26T23:21:18.000Z,9.33
2023-03-26T23:41:21.044Z,8.91
